createdAt,value
2019-03-24T00:00:30.766Z,15.30
2019-03-24T00:03:00.554Z,16.87
2019-03-24T00:05:29.491Z,14.80
2019-03-24T00:07:58.548Z,11.10
2019-03-24T00:10:28.494Z,16.10
2019-03-24T00:12:56.666Z,16.70
2019-03-24T00:15:26.659Z,14.13
2019-03-24T00:17:56.473Z,18.45
2019-03-24T00:20:25.059Z,22.00
2019-03-24T00:22:54.903Z,17.32
2019-03-24T00:25:24.510Z,16.20
2019-03-24T00:27:52.907Z,15.20
2019-03-24T00:30:21.875Z,23.00
2019-03-24T00:32:51.034Z,17.05
2019-03-24T00:35:20.393Z,15.95
2019-03-24T00:37:49.266Z,16.25
2019-03-24T00:40:19.999Z,17.23
2019-03-24T00:42:47.754Z,15.75
2019-03-24T00:45:16.757Z,20.57
2019-03-24T00:47:45.962Z,18.25
2019-03-24T00:50:13.662Z,19.05
2019-03-24T00:52:42.718Z,14.78
2019-03-24T00:55:11.520Z,17.73
2019-03-24T00:57:40.392Z,22.70
2019-03-24T01:00:10.454Z,16.52
2019-03-24T01:02:39.544Z,19.45
2019-03-24T01:05:09.033Z,19.42
2019-03-24T01:07:37.734Z,19.02
2019-03-24T01:10:07.548Z,25.17
2019-03-24T01:12:37.116Z,18.40
2019-03-24T01:15:07.303Z,14.15
2019-03-24T01:17:36.071Z,18.40
2019-03-24T01:20:04.107Z,19.77
2019-03-24T01:22:33.203Z,18.07
2019-03-24T01:25:02.089Z,17.37
2019-03-24T01:27:31.290Z,20.27
2019-03-24T01:30:00.493Z,19.12
2019-03-24T01:32:28.342Z,19.32
2019-03-24T01:34:57.434Z,20.88
2019-03-24T01:37:29.821Z,17.92
2019-03-24T01:39:58.932Z,22.00
2019-03-24T01:42:29.244Z,19.75
2019-03-24T01:44:57.315Z,20.17
2019-03-24T01:47:25.167Z,18.50
2019-03-24T01:49:54.787Z,26.48
2019-03-24T01:52:23.153Z,25.05
2019-03-24T01:54:52.362Z,17.05
2019-03-24T01:57:20.446Z,22.27
2019-03-24T01:59:49.489Z,26.20
2019-03-24T02:02:18.425Z,19.60
2019-03-24T02:04:47.562Z,19.42
2019-03-24T02:07:16.831Z,19.48
2019-03-24T02:09:46.528Z,21.65
2019-03-24T02:12:14.253Z,17.10
2019-03-24T02:14:43.023Z,16.05
2019-03-24T02:17:12.503Z,20.25
2019-03-24T02:19:41.118Z,20.37
2019-03-24T02:22:10.472Z,17.00
2019-03-24T02:24:40.037Z,19.42
2019-03-24T02:27:09.377Z,17.10
2019-03-24T02:29:38.630Z,17.15
2019-03-24T02:32:08.483Z,13.75
2019-03-24T02:34:36.953Z,14.93
2019-03-24T02:37:05.860Z,20.52
2019-03-24T02:39:34.741Z,15.90
2019-03-24T02:42:04.045Z,11.48
2019-03-24T02:44:32.922Z,15.30
2019-03-24T02:47:02.344Z,11.38
2019-03-24T02:49:31.380Z,14.03
2019-03-24T02:52:00.432Z,17.45
2019-03-24T02:54:29.820Z,11.00
2019-03-24T02:56:59.132Z,9.10
2019-03-24T02:59:28.245Z,10.50
2019-03-24T03:01:57.541Z,14.30
2019-03-24T03:04:26.335Z,13.43
2019-03-24T03:06:55.550Z,10.68
2019-03-24T03:09:24.445Z,7.08
2019-03-24T03:11:53.140Z,8.63
2019-03-24T03:14:22.307Z,10.40
2019-03-24T03:16:51.200Z,13.38
2019-03-24T03:19:20.495Z,15.32
2019-03-24T03:21:51.248Z,11.15
2019-03-24T03:24:19.824Z,9.80
2019-03-24T03:26:48.492Z,14.95
2019-03-24T03:29:16.318Z,11.65
2019-03-24T03:31:45.604Z,8.60
2019-03-24T03:34:14.111Z,16.27
2019-03-24T03:36:43.448Z,14.98
2019-03-24T03:39:12.944Z,15.50
2019-03-24T03:41:42.587Z,11.95
2019-03-24T03:44:11.492Z,14.68
2019-03-24T03:46:51.878Z,13.18
2019-03-24T03:49:11.887Z,13.40
2019-03-24T03:51:40.176Z,13.83
2019-03-24T03:54:09.251Z,9.13
2019-03-24T03:56:38.376Z,10.05
2019-03-24T03:59:07.586Z,20.30
2019-03-24T04:01:37.360Z,11.48
2019-03-24T04:04:05.102Z,10.53
2019-03-24T04:06:34.150Z,15.20
2019-03-24T04:09:05.336Z,10.15
2019-03-24T04:11:34.431Z,14.38
2019-03-24T04:14:02.814Z,11.08
2019-03-24T04:16:32.073Z,7.80
2019-03-24T04:19:00.036Z,14.28
2019-03-24T04:21:29.320Z,18.75
2019-03-24T04:23:58.936Z,13.85
2019-03-24T04:26:27.872Z,9.20
2019-03-24T04:28:57.315Z,14.65
2019-03-24T04:31:26.054Z,13.58
2019-03-24T04:33:55.728Z,14.30
2019-03-24T04:36:24.754Z,13.62
2019-03-24T04:38:53.635Z,13.32
2019-03-24T04:41:22.917Z,17.40
2019-03-24T04:43:52.616Z,13.15
2019-03-24T04:46:20.586Z,11.40
2019-03-24T04:48:49.887Z,13.25
2019-03-24T04:51:18.562Z,19.37
2019-03-24T04:53:46.838Z,13.58
2019-03-24T04:56:15.789Z,12.40
2019-03-24T04:58:45.050Z,12.60
2019-03-24T05:01:13.511Z,13.35
2019-03-24T05:03:42.511Z,12.05
2019-03-24T05:06:15.724Z,13.93
2019-03-24T05:08:44.804Z,12.37
2019-03-24T05:11:13.285Z,9.18
2019-03-24T05:13:41.763Z,10.20
2019-03-24T05:16:09.945Z,16.45
2019-03-24T05:18:39.181Z,13.15
2019-03-24T05:21:06.946Z,15.32
2019-03-24T05:23:36.545Z,17.92
2019-03-24T05:26:05.342Z,13.83
2019-03-24T05:28:35.259Z,15.58
2019-03-24T05:31:04.515Z,11.78
2019-03-24T05:33:33.597Z,18.57
2019-03-24T05:36:02.314Z,19.98
2019-03-24T05:38:31.747Z,13.43
2019-03-24T05:41:00.995Z,10.55
2019-03-24T05:43:30.302Z,11.48
2019-03-24T05:45:59.403Z,22.55
2019-03-24T05:48:32.578Z,12.73
2019-03-24T05:51:04.595Z,12.60
2019-03-24T05:53:33.305Z,16.05
2019-03-24T05:56:01.829Z,17.12
2019-03-24T05:58:30.007Z,19.17
2019-03-24T06:00:58.258Z,11.48
2019-03-24T06:03:26.253Z,12.55
2019-03-24T06:05:54.217Z,12.80
2019-03-24T06:08:22.373Z,12.80
2019-03-24T06:10:51.685Z,14.90
2019-03-24T06:13:21.021Z,14.65
2019-03-24T06:15:50.283Z,19.05
2019-03-24T06:18:19.090Z,16.00
2019-03-24T06:20:47.567Z,16.65
2019-03-24T06:23:16.055Z,15.40
2019-03-24T06:25:44.674Z,15.68
2019-03-24T06:28:13.375Z,22.35
2019-03-24T06:30:42.063Z,18.40
2019-03-24T06:33:10.735Z,22.35
2019-03-24T06:35:39.337Z,16.90
2019-03-24T06:38:08.158Z,16.42
2019-03-24T06:40:36.732Z,13.72
2019-03-24T06:43:05.318Z,17.25
2019-03-24T06:45:33.908Z,15.93
2019-03-24T06:48:02.565Z,16.95
2019-03-24T06:50:31.542Z,17.40
2019-03-24T06:52:59.022Z,19.00
2019-03-24T06:55:27.662Z,22.02
2019-03-24T06:57:56.813Z,18.77
2019-03-24T07:00:25.518Z,15.30
2019-03-24T07:02:54.799Z,15.38
2019-03-24T07:05:23.710Z,15.88
2019-03-24T07:07:52.978Z,14.53
2019-03-24T07:10:21.008Z,23.83
2019-03-24T07:12:51.478Z,26.15
2019-03-24T07:15:20.318Z,16.87
2019-03-24T07:17:49.595Z,27.58
2019-03-24T07:20:18.490Z,16.15
2019-03-24T07:22:47.661Z,16.75
2019-03-24T07:25:16.272Z,15.38
2019-03-24T07:27:45.353Z,19.40
2019-03-24T07:30:14.222Z,21.57
2019-03-24T07:32:43.316Z,16.02
2019-03-24T07:35:12.839Z,17.62
2019-03-24T07:37:42.549Z,25.65
2019-03-24T07:40:13.214Z,19.17
2019-03-24T07:42:41.560Z,26.55
2019-03-24T07:45:09.345Z,17.80
2019-03-24T07:47:38.266Z,20.30
2019-03-24T07:50:08.035Z,17.55
2019-03-24T07:52:36.747Z,14.60
2019-03-24T07:55:06.358Z,26.35
2019-03-24T07:57:35.722Z,16.25
2019-03-24T08:00:06.761Z,17.92
2019-03-24T08:02:36.383Z,20.27
2019-03-24T08:05:04.642Z,16.75
2019-03-24T08:07:33.665Z,15.15
2019-03-24T08:10:03.043Z,18.20
2019-03-24T08:12:31.082Z,17.20
2019-03-24T08:15:00.517Z,15.03
2019-03-24T08:17:30.131Z,15.53
2019-03-24T08:20:00.683Z,16.42
2019-03-24T08:22:29.955Z,17.30
2019-03-24T08:24:58.236Z,17.67
2019-03-24T08:27:26.825Z,18.10
2019-03-24T08:29:56.014Z,17.97
2019-03-24T08:32:25.760Z,16.33
2019-03-24T08:34:54.078Z,20.97
2019-03-24T08:37:23.143Z,21.87
2019-03-24T08:39:52.324Z,16.17
2019-03-24T08:42:20.357Z,21.27
2019-03-24T08:44:49.932Z,14.20
2019-03-24T08:47:18.748Z,19.37
2019-03-24T08:49:46.403Z,16.50
2019-03-24T08:52:15.208Z,17.62
2019-03-24T08:54:45.394Z,28.45
2019-03-24T08:57:13.098Z,19.40
2019-03-24T08:59:42.597Z,18.57
2019-03-24T09:02:10.099Z,16.97
2019-03-24T09:04:38.690Z,13.68
2019-03-24T09:07:08.283Z,21.33
2019-03-24T09:09:35.983Z,23.50
2019-03-24T09:12:04.821Z,21.65
2019-03-24T09:14:33.429Z,22.17
2019-03-24T09:17:02.118Z,17.25
2019-03-24T09:19:30.978Z,20.75
2019-03-24T09:21:59.598Z,25.02
2019-03-24T09:24:28.271Z,22.17
2019-03-24T09:26:56.991Z,25.35
2019-03-24T09:29:25.598Z,28.83
2019-03-24T09:31:54.299Z,28.98
2019-03-24T09:34:22.978Z,30.27
2019-03-24T09:36:51.875Z,25.48
2019-03-24T09:39:20.481Z,33.30
2019-03-24T09:41:49.205Z,25.90
2019-03-24T09:44:18.729Z,32.75
2019-03-24T09:46:48.381Z,19.80
2019-03-24T09:49:20.583Z,29.48
2019-03-24T09:51:49.311Z,26.12
2019-03-24T09:54:17.777Z,24.63
2019-03-24T09:56:45.764Z,16.62
2019-03-24T09:59:13.393Z,21.48
2019-03-24T10:01:42.429Z,27.55
2019-03-24T10:04:11.555Z,18.35
2019-03-24T10:06:40.403Z,21.52
2019-03-24T10:09:09.608Z,19.95
2019-03-24T10:11:38.431Z,18.67
2019-03-24T10:14:07.289Z,16.17
2019-03-24T10:16:38.671Z,19.57
2019-03-24T10:19:13.832Z,18.90
2019-03-24T10:21:38.075Z,18.15
2019-03-24T10:24:07.884Z,21.97
2019-03-24T10:26:35.663Z,16.40
2019-03-24T10:29:03.365Z,14.23
2019-03-24T10:31:30.965Z,20.37
2019-03-24T10:33:59.474Z,16.05
2019-03-24T10:36:28.163Z,16.75
2019-03-24T10:38:56.892Z,16.30
2019-03-24T10:41:25.428Z,15.28
2019-03-24T10:43:54.008Z,17.57
2019-03-24T10:46:22.725Z,14.98
2019-03-24T10:48:51.446Z,18.62
2019-03-24T10:51:20.044Z,13.93
2019-03-24T10:53:50.552Z,12.03
2019-03-24T10:56:18.150Z,10.85
2019-03-24T10:58:45.862Z,15.65
2019-03-24T11:01:14.618Z,14.75
2019-03-24T11:03:43.639Z,16.05
2019-03-24T11:06:12.644Z,13.47
2019-03-24T11:08:41.351Z,18.17
2019-03-24T11:11:10.070Z,17.98
2019-03-24T11:13:38.677Z,15.28
2019-03-24T11:16:07.614Z,12.70
2019-03-24T11:18:36.804Z,13.58
2019-03-24T11:21:04.521Z,13.10
2019-03-24T11:23:33.150Z,12.20
2019-03-24T11:26:01.755Z,17.33
2019-03-24T11:28:33.807Z,12.20
2019-03-24T11:31:03.101Z,13.40
2019-03-24T11:33:30.684Z,10.93
2019-03-24T11:35:58.390Z,9.20
2019-03-24T11:38:27.311Z,14.63
2019-03-24T11:40:56.015Z,13.93
2019-03-24T11:43:24.637Z,11.30
2019-03-24T11:45:53.439Z,16.00
2019-03-24T11:48:23.333Z,15.97
2019-03-24T11:50:50.876Z,17.27
2019-03-24T11:53:24.515Z,13.13
2019-03-24T11:55:53.238Z,13.07
2019-03-24T11:58:20.955Z,11.30
2019-03-24T12:00:49.023Z,8.50
2019-03-24T12:03:25.493Z,10.17
2019-03-24T12:05:53.564Z,8.03
2019-03-24T12:08:21.284Z,11.90
2019-03-24T12:10:48.992Z,11.00
2019-03-24T12:13:16.611Z,10.67
2019-03-24T12:15:44.373Z,14.13
2019-03-24T12:18:22.196Z,9.27
2019-03-24T12:20:50.067Z,12.83
2019-03-24T12:23:17.809Z,9.60
2019-03-24T12:25:45.541Z,14.17
2019-03-24T12:28:13.337Z,12.97
2019-03-24T12:30:41.472Z,15.60
2019-03-24T12:33:09.094Z,12.27
2019-03-24T12:35:36.670Z,12.47
2019-03-24T12:38:04.515Z,10.40
2019-03-24T12:40:32.628Z,12.50
2019-03-24T12:43:00.375Z,9.00
2019-03-24T12:45:28.061Z,11.43
2019-03-24T12:47:55.701Z,11.10
2019-03-24T12:50:31.501Z,10.57
2019-03-24T12:52:55.735Z,8.97
2019-03-24T12:55:23.326Z,10.73
2019-03-24T12:57:50.963Z,8.93
2019-03-24T13:00:39.624Z,8.40
2019-03-24T13:03:08.251Z,6.47
2019-03-24T13:05:36.241Z,8.20
2019-03-24T13:08:14.650Z,7.90
2019-03-24T13:10:42.988Z,5.77
2019-03-24T13:13:11.046Z,5.93
2019-03-24T13:15:38.914Z,5.23
2019-03-24T13:18:08.113Z,7.77
2019-03-24T13:20:38.682Z,6.23
2019-03-24T13:23:08.082Z,8.10
2019-03-24T13:25:37.176Z,5.80
2019-03-24T13:28:06.187Z,4.10
2019-03-24T13:30:35.155Z,4.30
2019-03-24T13:33:04.210Z,4.47
2019-03-24T13:35:33.559Z,4.27
2019-03-24T13:38:04.205Z,5.90
2019-03-24T13:40:33.377Z,6.87
2019-03-24T13:43:02.278Z,3.83
2019-03-24T13:45:31.679Z,3.93
2019-03-24T13:48:00.769Z,7.20
2019-03-24T13:50:31.682Z,4.50
2019-03-24T13:53:00.828Z,4.50
2019-03-24T13:55:30.263Z,6.50
2019-03-24T13:57:59.727Z,3.17
2019-03-24T14:00:28.457Z,4.27
2019-03-24T14:02:58.578Z,2.97
2019-03-24T14:05:27.637Z,4.77
2019-03-24T14:07:57.322Z,3.37
2019-03-24T14:10:35.193Z,4.17
2019-03-24T14:13:03.146Z,4.40
2019-03-24T14:15:31.848Z,2.97
2019-03-24T14:18:00.847Z,3.83
2019-03-24T14:20:43.440Z,4.50
2019-03-24T14:23:06.134Z,4.10
2019-03-24T14:25:35.242Z,5.10
2019-03-24T14:28:04.324Z,5.87
2019-03-24T14:30:43.938Z,4.07
2019-03-24T14:33:14.108Z,4.10
2019-03-24T14:35:42.167Z,4.30
2019-03-24T14:38:14.391Z,2.90
2019-03-24T14:40:42.299Z,3.27
2019-03-24T14:43:10.778Z,3.00
2019-03-24T14:45:40.022Z,1.70
2019-03-24T14:48:09.082Z,2.37
2019-03-24T14:50:39.426Z,3.03
2019-03-24T14:53:07.778Z,3.43
2019-03-24T14:55:36.575Z,2.47
2019-03-24T14:58:05.778Z,2.37
2019-03-24T15:00:38.219Z,1.47
2019-03-24T15:03:07.395Z,6.00
2019-03-24T15:05:36.533Z,4.00
2019-03-24T15:08:08.602Z,5.53
2019-03-24T15:10:39.224Z,4.10
2019-03-24T15:13:07.315Z,5.90
2019-03-24T15:15:35.570Z,3.20
2019-03-24T15:18:03.574Z,4.23
2019-03-24T15:20:33.124Z,3.10
2019-03-24T15:23:02.521Z,4.40
2019-03-24T15:25:30.177Z,5.67
2019-03-24T15:27:59.125Z,3.93
2019-03-24T15:30:27.831Z,4.53
2019-03-24T15:32:56.701Z,3.63
2019-03-24T15:35:28.893Z,6.07
2019-03-24T15:38:07.758Z,4.37
2019-03-24T15:40:26.715Z,7.90
2019-03-24T15:42:56.055Z,4.20
2019-03-24T15:45:26.648Z,8.58
2019-03-24T15:47:55.989Z,6.97
2019-03-24T15:50:23.953Z,7.43
2019-03-24T15:52:52.001Z,6.47
2019-03-24T15:55:20.618Z,6.80
2019-03-24T15:57:54.157Z,6.40
2019-03-24T16:00:40.625Z,7.70
2019-03-24T16:03:10.142Z,6.67
2019-03-24T16:05:38.087Z,6.67
2019-03-24T16:08:07.390Z,8.43
2019-03-24T16:10:35.596Z,8.23
2019-03-24T16:13:03.731Z,11.30
2019-03-24T16:15:37.648Z,11.87
2019-03-24T16:18:05.753Z,6.03
2019-03-24T16:20:34.515Z,7.40
2019-03-24T16:23:02.253Z,10.20
2019-03-24T16:25:33.657Z,9.88
2019-03-24T16:28:02.216Z,5.30
2019-03-24T16:30:29.726Z,6.37
2019-03-24T16:32:59.247Z,6.40
2019-03-24T16:35:28.317Z,5.28
2019-03-24T16:37:58.084Z,10.28
2019-03-24T16:40:26.557Z,8.88
2019-03-24T16:42:54.279Z,4.53
2019-03-24T16:45:23.211Z,4.65
2019-03-24T16:47:52.586Z,7.95
2019-03-24T16:50:22.326Z,5.45
2019-03-24T16:52:51.252Z,6.60
2019-03-24T16:55:20.727Z,5.37
2019-03-24T16:57:49.953Z,4.30
2019-03-24T17:00:22.098Z,4.95
2019-03-24T17:02:50.154Z,5.22
2019-03-24T17:05:18.538Z,7.80
2019-03-24T17:07:46.648Z,6.90
2019-03-24T17:10:14.675Z,7.30
2019-03-24T17:12:47.787Z,5.25
2019-03-24T17:15:15.845Z,7.15
2019-03-24T17:17:44.131Z,3.33
2019-03-24T17:20:12.396Z,4.95
2019-03-24T17:22:40.267Z,4.47
2019-03-24T17:25:13.807Z,5.60
2019-03-24T17:27:42.589Z,8.33
2019-03-24T17:30:11.851Z,5.05
2019-03-24T17:32:40.850Z,2.87
2019-03-24T17:35:14.822Z,6.62
2019-03-24T17:37:42.645Z,5.97
2019-03-24T17:40:12.457Z,3.67
2019-03-24T17:42:41.059Z,4.87
2019-03-24T17:45:10.857Z,5.55
2019-03-24T17:47:42.492Z,5.22
2019-03-24T17:50:12.085Z,4.72
2019-03-24T17:52:41.504Z,3.70
2019-03-24T17:55:10.913Z,4.20
2019-03-24T17:57:47.798Z,7.10
2019-03-24T18:00:21.692Z,7.05
2019-03-24T18:02:49.982Z,7.72
2019-03-24T18:05:17.861Z,6.05
2019-03-24T18:07:45.818Z,7.12
2019-03-24T18:10:14.390Z,13.48
2019-03-24T18:12:42.881Z,4.78
2019-03-24T18:15:11.158Z,3.62
2019-03-24T18:17:40.142Z,5.05
2019-03-24T18:20:17.536Z,5.03
2019-03-24T18:22:45.694Z,6.20
2019-03-24T18:25:13.786Z,3.52
2019-03-24T18:27:41.551Z,3.17
2019-03-24T18:30:11.059Z,8.60
2019-03-24T18:32:38.759Z,7.62
2019-03-24T18:35:08.776Z,8.90
2019-03-24T18:37:37.826Z,9.88
2019-03-24T18:40:08.111Z,6.20
2019-03-24T18:42:36.427Z,7.83
2019-03-24T18:45:11.805Z,5.00
2019-03-24T18:47:39.914Z,5.83
2019-03-24T18:50:08.114Z,10.75
2019-03-24T18:52:36.391Z,5.72
2019-03-24T18:55:04.665Z,8.65
2019-03-24T18:57:32.406Z,8.25
2019-03-24T19:00:01.778Z,15.13
2019-03-24T19:02:30.594Z,10.00
2019-03-24T19:04:59.621Z,5.35
2019-03-24T19:07:28.561Z,4.92
2019-03-24T19:09:57.674Z,9.35
2019-03-24T19:12:28.064Z,6.25
2019-03-24T19:14:56.988Z,7.60
2019-03-24T19:17:25.965Z,10.60
2019-03-24T19:19:54.915Z,4.97
2019-03-24T19:22:33.329Z,7.22
2019-03-24T19:24:55.476Z,7.70
2019-03-24T19:27:24.350Z,6.35
2019-03-24T19:29:53.221Z,7.30
2019-03-24T19:32:22.071Z,6.67
2019-03-24T19:34:50.751Z,8.88
2019-03-24T19:37:20.045Z,8.38
2019-03-24T19:39:49.126Z,6.70
2019-03-24T19:42:18.026Z,11.30
2019-03-24T19:44:47.558Z,8.55
2019-03-24T19:47:17.586Z,9.55
2019-03-24T19:49:46.521Z,8.30
2019-03-24T19:52:15.465Z,5.83
2019-03-24T19:54:44.414Z,7.67
2019-03-24T19:57:13.300Z,7.55
2019-03-24T19:59:43.826Z,6.45
2019-03-24T20:02:12.522Z,9.28
2019-03-24T20:04:41.375Z,8.60
2019-03-24T20:07:10.679Z,10.23
2019-03-24T20:09:43.412Z,7.17
2019-03-24T20:12:12.334Z,6.25
2019-03-24T20:14:41.877Z,8.70
2019-03-24T20:17:10.371Z,12.43
2019-03-24T20:19:43.901Z,9.08
2019-03-24T20:22:13.373Z,6.17
2019-03-24T20:24:42.273Z,5.65
2019-03-24T20:27:11.572Z,4.78
2019-03-24T20:29:40.411Z,6.58
2019-03-24T20:32:12.221Z,8.83
2019-03-24T20:34:41.213Z,5.50
2019-03-24T20:37:09.079Z,12.78
2019-03-24T20:39:37.215Z,9.55
2019-03-24T20:42:10.859Z,7.90
2019-03-24T20:44:39.206Z,6.33
2019-03-24T20:47:06.839Z,8.23
2019-03-24T20:49:34.328Z,7.92
2019-03-24T20:52:02.199Z,6.75
2019-03-24T20:54:33.989Z,7.92
2019-03-24T20:57:02.058Z,6.37
2019-03-24T20:59:29.663Z,5.95
2019-03-24T21:01:57.364Z,7.92
2019-03-24T21:04:25.958Z,7.60
2019-03-24T21:06:55.166Z,6.17
2019-03-24T21:09:26.886Z,9.63
2019-03-24T21:11:56.928Z,7.60
2019-03-24T21:14:25.611Z,6.55
2019-03-24T21:16:54.458Z,8.30
2019-03-24T21:19:24.119Z,11.65
2019-03-24T21:21:53.736Z,9.58
2019-03-24T21:24:21.487Z,7.33
2019-03-24T21:26:50.173Z,7.35
2019-03-24T21:29:18.789Z,6.28
2019-03-24T21:31:47.548Z,6.42
2019-03-24T21:34:18.714Z,9.33
2019-03-24T21:36:47.447Z,8.63
2019-03-24T21:39:16.325Z,13.55
2019-03-24T21:41:45.079Z,6.42
2019-03-24T21:44:13.887Z,7.95
2019-03-24T21:46:47.082Z,13.88
2019-03-24T21:49:14.619Z,12.80
2019-03-24T21:51:43.306Z,13.20
2019-03-24T21:54:12.292Z,12.47
2019-03-24T21:56:41.587Z,13.15
2019-03-24T21:59:13.248Z,13.32
2019-03-24T22:01:42.156Z,7.67
2019-03-24T22:04:11.581Z,7.33
2019-03-24T22:06:40.640Z,6.40
2019-03-24T22:09:15.369Z,10.88
2019-03-24T22:11:43.099Z,12.03
2019-03-24T22:14:11.974Z,7.17
2019-03-24T22:16:41.747Z,6.97
2019-03-24T22:19:15.647Z,10.68
2019-03-24T22:21:43.607Z,8.13
2019-03-24T22:24:11.882Z,10.13
2019-03-24T22:26:40.855Z,10.72
2019-03-24T22:29:10.188Z,12.30
2019-03-24T22:31:39.176Z,5.75
2019-03-24T22:34:08.833Z,12.65
2019-03-24T22:36:36.566Z,8.58
2019-03-24T22:39:06.459Z,11.83
2019-03-24T22:41:35.663Z,7.80
2019-03-24T22:44:04.716Z,12.25
2019-03-24T22:46:33.747Z,5.60
2019-03-24T22:49:02.947Z,11.12
2019-03-24T22:51:31.910Z,9.80
2019-03-24T22:54:03.472Z,6.28
2019-03-24T22:56:32.100Z,8.98
2019-03-24T22:59:00.822Z,8.50
2019-03-24T23:01:29.774Z,9.98
2019-03-24T23:03:59.022Z,6.80
2019-03-24T23:06:28.499Z,12.05
2019-03-24T23:08:56.577Z,10.35
2019-03-24T23:11:25.836Z,7.58
2019-03-24T23:13:54.219Z,7.22
2019-03-24T23:16:23.303Z,8.68
2019-03-24T23:18:51.886Z,6.72
2019-03-24T23:21:20.935Z,8.58
2019-03-24T23:23:49.874Z,9.20
2019-03-24T23:26:18.888Z,8.53
2019-03-24T23:28:47.985Z,12.40
2019-03-24T23:31:17.070Z,8.73
2019-03-24T23:33:46.738Z,9.10
2019-03-24T23:36:14.694Z,8.28
2019-03-24T23:38:43.994Z,10.32
2019-03-24T23:41:12.698Z,11.93
2019-03-24T23:43:41.431Z,12.70
2019-03-24T23:46:10.546Z,8.90
2019-03-24T23:48:39.622Z,10.15
2019-03-24T23:51:08.503Z,11.65
2019-03-24T23:53:37.362Z,9.78
2019-03-24T23:56:06.997Z,7.22
2019-03-24T23:58:40.819Z,14.35
